createdAt,value
2023-04-03T00:00:45.636Z,8.62
2023-04-03T00:03:54.616Z,8.48
2023-04-03T00:06:58.255Z,8.53
2023-04-03T00:10:02.023Z,8.69
2023-04-03T00:13:07.890Z,8.72
2023-04-03T00:16:13.130Z,8.59
2023-04-03T00:19:16.695Z,8.70
2023-04-03T00:22:20.518Z,8.65
2023-04-03T00:25:24.423Z,8.74
2023-04-03T00:28:29.689Z,8.89
2023-04-03T00:31:33.203Z,8.79
2023-04-03T00:34:37.026Z,8.79
2023-04-03T00:37:40.545Z,8.78
2023-04-03T00:40:49.194Z,8.90
2023-04-03T00:43:54.577Z,8.88
2023-04-03T00:46:58.489Z,8.89
2023-04-03T00:50:01.995Z,8.79
2023-04-03T00:53:07.263Z,8.69
2023-04-03T00:56:15.008Z,8.40
2023-04-03T00:59:27.523Z,8.65
2023-04-03T01:02:31.104Z,8.63
2023-04-03T01:05:35.432Z,8.66
2023-04-03T01:08:39.082Z,8.84
2023-04-03T01:11:43.335Z,8.91
2023-04-03T01:14:50.837Z,8.92
2023-04-03T01:17:57.558Z,8.92
2023-04-03T01:21:31.380Z,9.08
2023-04-03T01:24:39.998Z,9.00
2023-04-03T01:27:46.224Z,8.91
2023-04-03T01:30:58.897Z,9.04
2023-04-03T01:34:04.587Z,9.15
2023-04-03T01:37:10.000Z,9.24
2023-04-03T01:40:13.796Z,9.28
2023-04-03T01:43:17.792Z,9.41
2023-04-03T01:46:22.039Z,9.55
2023-04-03T01:49:27.465Z,9.47
2023-04-03T01:52:31.733Z,9.62
2023-04-03T01:55:36.196Z,9.73
2023-04-03T01:58:39.874Z,9.47
2023-04-03T02:01:44.535Z,9.51
2023-04-03T02:04:49.448Z,9.43
2023-04-03T02:07:53.318Z,9.65
2023-04-03T02:10:56.809Z,9.65
2023-04-03T02:14:00.957Z,9.49
2023-04-03T02:17:09.580Z,9.52
2023-04-03T02:20:14.977Z,9.77
2023-04-03T02:23:18.575Z,9.89
2023-04-03T02:26:22.669Z,9.56
2023-04-03T02:29:26.227Z,9.71
2023-04-03T02:32:30.803Z,9.95
2023-04-03T02:35:37.907Z,10.00
2023-04-03T02:38:42.540Z,9.94
2023-04-03T02:41:47.325Z,9.92
2023-04-03T02:44:58.127Z,9.46
2023-04-03T02:48:02.964Z,9.32
2023-04-03T02:51:08.500Z,9.34
2023-04-03T02:54:12.005Z,9.01
2023-04-03T02:57:20.793Z,8.88
2023-04-03T03:00:24.572Z,9.12
2023-04-03T03:03:28.388Z,9.21
2023-04-03T03:06:33.313Z,9.20
2023-04-03T03:09:37.199Z,9.15
2023-04-03T03:12:41.570Z,9.25
2023-04-03T03:15:45.329Z,8.85
2023-04-03T03:18:48.998Z,8.64
2023-04-03T03:21:54.488Z,8.61
2023-04-03T03:24:59.762Z,8.26
2023-04-03T03:28:03.716Z,8.18
2023-04-03T03:31:08.212Z,7.61
2023-04-03T03:34:14.206Z,7.76
2023-04-03T03:37:19.170Z,7.72
2023-04-03T03:40:23.546Z,7.46
2023-04-03T03:43:27.009Z,7.16
2023-04-03T03:46:31.706Z,7.23
2023-04-03T03:49:35.442Z,7.19
2023-04-03T03:52:41.178Z,7.12
2023-04-03T03:55:44.541Z,7.18
2023-04-03T03:58:48.711Z,7.10
2023-04-03T04:01:52.425Z,6.81
2023-04-03T04:04:56.386Z,6.85
2023-04-03T04:08:01.421Z,6.81
2023-04-03T04:11:05.316Z,6.75
2023-04-03T04:14:13.516Z,6.99
2023-04-03T04:17:18.945Z,7.05
2023-04-03T04:20:23.140Z,6.56
2023-04-03T04:23:28.461Z,6.53
2023-04-03T04:26:32.009Z,6.35
2023-04-03T04:29:37.510Z,6.60
2023-04-03T04:32:43.709Z,6.55
2023-04-03T04:35:49.747Z,6.39
2023-04-03T04:38:56.685Z,6.25
2023-04-03T04:42:02.980Z,6.54
2023-04-03T04:45:09.643Z,6.59
2023-04-03T04:48:14.969Z,6.23
2023-04-03T04:51:19.259Z,6.08
2023-04-03T04:54:25.523Z,6.20
2023-04-03T04:57:29.801Z,6.26
2023-04-03T05:00:35.750Z,6.18
2023-04-03T05:03:40.651Z,6.09
2023-04-03T05:06:44.948Z,5.94
2023-04-03T05:09:54.420Z,6.05
2023-04-03T05:12:58.717Z,5.85
2023-04-03T05:16:02.534Z,6.13
2023-04-03T05:19:06.771Z,6.34
2023-04-03T05:22:11.034Z,6.03
2023-04-03T05:25:16.468Z,5.66
2023-04-03T05:28:21.418Z,6.10
2023-04-03T05:31:25.589Z,6.24
2023-04-03T05:34:29.189Z,6.33
2023-04-03T05:37:33.955Z,6.06
2023-04-03T05:40:39.525Z,6.32
2023-04-03T05:43:44.421Z,6.13
2023-04-03T05:46:48.537Z,6.17
2023-04-03T05:49:52.749Z,6.28
2023-04-03T05:53:00.155Z,6.38
2023-04-03T05:56:08.653Z,5.94
2023-04-03T05:59:16.808Z,5.42
2023-04-03T06:02:24.006Z,5.52
2023-04-03T06:05:28.917Z,5.28
2023-04-03T06:08:33.097Z,5.33
2023-04-03T06:11:38.073Z,5.51
2023-04-03T06:14:42.107Z,5.78
2023-04-03T06:17:46.251Z,5.79
2023-04-03T06:20:50.789Z,5.50
2023-04-03T06:23:54.330Z,5.71
2023-04-03T06:27:00.835Z,5.86
2023-04-03T06:30:04.545Z,5.89
2023-04-03T06:33:08.426Z,5.67
2023-04-03T06:36:13.741Z,5.82
2023-04-03T06:39:21.032Z,5.76
2023-04-03T06:42:26.044Z,5.82
2023-04-03T06:45:41.615Z,5.66
2023-04-03T06:48:46.028Z,5.54
2023-04-03T06:51:49.898Z,5.19
2023-04-03T06:54:58.082Z,5.44
2023-04-03T06:58:04.924Z,5.54
2023-04-03T07:01:08.644Z,5.67
2023-04-03T07:04:12.697Z,5.91
2023-04-03T07:07:16.596Z,5.66
2023-04-03T07:10:21.160Z,5.79
2023-04-03T07:13:26.310Z,5.90
2023-04-03T07:16:32.008Z,5.64
2023-04-03T07:19:35.631Z,5.69
2023-04-03T07:22:39.809Z,5.63
2023-04-03T07:25:45.201Z,5.90
2023-04-03T07:28:51.006Z,6.13
2023-04-03T07:31:54.595Z,5.54
2023-04-03T07:34:58.640Z,5.92
2023-04-03T07:38:02.510Z,5.78
2023-04-03T07:41:06.881Z,5.43
2023-04-03T07:44:11.970Z,5.53
2023-04-03T07:47:17.780Z,5.54
2023-04-03T07:50:21.805Z,5.49
2023-04-03T07:53:26.286Z,5.24
2023-04-03T07:56:30.012Z,5.41
2023-04-03T07:59:35.484Z,5.07
2023-04-03T08:02:39.065Z,4.95
2023-04-03T08:05:45.482Z,5.07
2023-04-03T08:08:49.146Z,4.77
2023-04-03T08:11:54.633Z,4.87
2023-04-03T08:15:01.465Z,4.69
2023-04-03T08:18:06.023Z,4.77
2023-04-03T08:21:10.849Z,4.84
2023-04-03T08:24:14.673Z,4.96
2023-04-03T08:27:18.597Z,5.04
2023-04-03T08:30:24.077Z,5.07
2023-04-03T08:33:28.368Z,5.21
2023-04-03T08:36:32.507Z,5.33
2023-04-03T08:39:35.905Z,5.29
2023-04-03T08:42:50.341Z,5.45
2023-04-03T08:45:57.691Z,5.42
2023-04-03T08:49:02.073Z,5.45
2023-04-03T08:52:12.213Z,5.11
2023-04-03T08:55:24.358Z,4.95
2023-04-03T08:58:31.854Z,5.10
2023-04-03T09:01:39.317Z,5.57
2023-04-03T09:04:42.844Z,5.61
2023-04-03T09:07:50.138Z,5.46
2023-04-03T09:11:08.325Z,5.68
2023-04-03T09:14:22.511Z,5.75
2023-04-03T09:17:43.257Z,5.57
2023-04-03T09:20:56.084Z,5.82
2023-04-03T09:24:02.812Z,6.18
2023-04-03T09:27:09.750Z,6.17
2023-04-03T09:30:17.167Z,6.37
2023-04-03T09:33:23.703Z,6.14
2023-04-03T09:36:44.915Z,5.84
2023-04-03T09:39:54.649Z,5.82
2023-04-03T09:43:01.587Z,5.74
2023-04-03T09:46:21.405Z,5.50
2023-04-03T09:49:28.348Z,5.49
2023-04-03T09:52:33.229Z,5.36
2023-04-03T09:55:44.982Z,5.52
2023-04-03T09:58:51.878Z,5.50
2023-04-03T10:02:02.017Z,5.42
2023-04-03T10:05:28.844Z,5.35
2023-04-03T10:08:35.711Z,5.35
2023-04-03T10:11:40.013Z,5.59
2023-04-03T10:14:58.242Z,5.96
2023-04-03T10:18:21.680Z,5.85
2023-04-03T10:21:41.741Z,5.59
2023-04-03T10:24:54.191Z,5.44
2023-04-03T10:28:02.572Z,5.23
2023-04-03T10:31:16.011Z,5.22
2023-04-03T10:34:26.774Z,5.38
2023-04-03T10:37:41.378Z,5.44
2023-04-03T10:40:54.165Z,5.18
2023-04-03T10:44:10.857Z,5.14
2023-04-03T10:47:20.844Z,5.17
2023-04-03T10:50:39.172Z,5.34
2023-04-03T10:53:53.983Z,5.34
2023-04-03T10:57:10.823Z,5.37
2023-04-03T11:00:20.388Z,5.41
2023-04-03T11:03:33.330Z,5.76
2023-04-03T11:06:41.890Z,5.86
2023-04-03T11:09:51.058Z,5.97
2023-04-03T11:13:01.933Z,5.85
2023-04-03T11:16:07.610Z,6.18
2023-04-03T11:19:22.705Z,6.14
2023-04-03T11:22:32.735Z,6.36
2023-04-03T11:25:41.895Z,6.41
2023-04-03T11:28:48.179Z,6.51
2023-04-03T11:32:12.219Z,6.68
2023-04-03T11:35:17.611Z,6.46
2023-04-03T11:38:27.564Z,6.59
2023-04-03T11:41:34.003Z,6.41
2023-04-03T11:44:39.762Z,6.24
2023-04-03T11:47:49.447Z,6.57
2023-04-03T11:50:53.352Z,6.42
2023-04-03T11:54:17.251Z,6.67
2023-04-03T11:57:57.903Z,6.74
2023-04-03T12:01:09.165Z,6.54
2023-04-03T12:04:16.088Z,6.76
2023-04-03T12:07:21.739Z,6.84
2023-04-03T12:10:32.146Z,7.04
2023-04-03T12:13:37.507Z,7.20
2023-04-03T12:16:48.374Z,6.80
2023-04-03T12:19:52.835Z,6.92
2023-04-03T12:23:26.342Z,6.70
2023-04-03T12:26:42.074Z,6.72
2023-04-03T12:29:58.310Z,6.88
2023-04-03T12:33:23.195Z,6.98
2023-04-03T12:36:37.117Z,7.13
2023-04-03T12:39:55.139Z,7.25
2023-04-03T12:43:29.948Z,7.25
2023-04-03T12:46:40.882Z,7.17
2023-04-03T12:49:46.259Z,7.23
2023-04-03T12:52:56.372Z,7.16
2023-04-03T12:56:20.357Z,6.82
2023-04-03T12:59:27.299Z,6.93
2023-04-03T13:02:34.845Z,6.89
2023-04-03T13:05:40.703Z,6.85
2023-04-03T13:08:51.312Z,6.69
2023-04-03T13:12:01.517Z,6.69
2023-04-03T13:15:18.803Z,6.61
2023-04-03T13:18:28.031Z,6.62
2023-04-03T13:21:36.755Z,6.69
2023-04-03T13:24:41.364Z,6.31
2023-04-03T13:27:46.450Z,6.22
2023-04-03T13:31:01.361Z,6.39
2023-04-03T13:34:09.517Z,6.43
2023-04-03T13:37:24.583Z,6.37
2023-04-03T13:40:32.369Z,6.23
2023-04-03T13:43:41.340Z,6.45
2023-04-03T13:46:46.260Z,6.17
2023-04-03T13:50:02.714Z,6.28
2023-04-03T13:53:15.897Z,6.30
2023-04-03T13:56:26.460Z,6.06
2023-04-03T13:59:32.036Z,6.10
2023-04-03T14:02:36.805Z,5.80
2023-04-03T14:05:40.935Z,5.94
2023-04-03T14:08:47.248Z,5.76
2023-04-03T14:11:53.797Z,5.92
2023-04-03T14:14:58.011Z,5.96
2023-04-03T14:18:03.900Z,5.80
2023-04-03T14:21:08.927Z,6.08
2023-04-03T14:24:14.085Z,6.15
2023-04-03T14:27:22.001Z,6.23
2023-04-03T14:30:28.968Z,5.95
2023-04-03T14:33:35.855Z,6.08
2023-04-03T14:36:40.215Z,5.98
2023-04-03T14:39:46.339Z,6.01
2023-04-03T14:42:49.983Z,5.74
2023-04-03T14:45:53.877Z,5.70
2023-04-03T14:48:57.596Z,5.86
2023-04-03T14:52:01.708Z,5.88
2023-04-03T14:55:09.812Z,6.11
2023-04-03T14:58:17.284Z,6.07
2023-04-03T15:01:21.202Z,6.07
2023-04-03T15:04:26.370Z,6.21
2023-04-03T15:07:32.470Z,6.25
2023-04-03T15:10:38.216Z,6.36
2023-04-03T15:13:42.313Z,6.26
2023-04-03T15:16:46.833Z,6.42
2023-04-03T15:19:50.785Z,6.28
2023-04-03T15:22:57.300Z,6.21
2023-04-03T15:26:02.557Z,6.40
2023-04-03T15:29:07.333Z,6.09
2023-04-03T15:32:11.759Z,6.08
2023-04-03T15:35:16.321Z,6.00
2023-04-03T15:38:20.405Z,6.03
2023-04-03T15:41:26.128Z,6.22
2023-04-03T15:44:29.872Z,5.97
2023-04-03T15:47:34.184Z,6.00
2023-04-03T15:50:38.383Z,6.12
2023-04-03T15:53:43.232Z,6.09
2023-04-03T15:56:48.123Z,6.28
2023-04-03T15:59:52.372Z,6.25
2023-04-03T16:02:59.963Z,6.17
2023-04-03T16:06:03.847Z,6.07
2023-04-03T16:09:08.474Z,5.84
2023-04-03T16:12:13.973Z,5.79
2023-04-03T16:15:17.491Z,5.87
2023-04-03T16:18:21.261Z,5.74
2023-04-03T16:21:25.743Z,5.67
2023-04-03T16:24:29.658Z,5.82
2023-04-03T16:27:34.811Z,5.91
2023-04-03T16:30:38.532Z,5.85
2023-04-03T16:33:42.307Z,5.72
2023-04-03T16:36:46.564Z,5.91
2023-04-03T16:39:50.112Z,5.82
2023-04-03T16:42:55.803Z,5.93
2023-04-03T16:45:59.952Z,6.14
2023-04-03T16:49:04.237Z,6.30
2023-04-03T16:52:07.984Z,6.38
2023-04-03T16:55:11.683Z,6.32
2023-04-03T16:58:16.833Z,5.92
2023-04-03T17:01:22.838Z,5.92
2023-04-03T17:04:27.367Z,5.91
2023-04-03T17:07:31.666Z,5.96
2023-04-03T17:10:36.393Z,6.08
2023-04-03T17:13:41.820Z,6.00
2023-04-03T17:16:45.592Z,5.79
2023-04-03T17:19:50.166Z,5.54
2023-04-03T17:22:53.711Z,5.73
2023-04-03T17:25:57.946Z,5.66
2023-04-03T17:29:03.017Z,5.69
2023-04-03T17:32:07.581Z,5.71
2023-04-03T17:35:12.237Z,5.64
2023-04-03T17:38:16.416Z,5.44
2023-04-03T17:41:20.948Z,5.57
2023-04-03T17:44:27.292Z,5.43
2023-04-03T17:47:30.924Z,5.41
2023-04-03T17:50:35.456Z,5.33
2023-04-03T17:53:39.130Z,5.07
2023-04-03T17:56:47.881Z,5.20
2023-04-03T17:59:54.225Z,5.37
2023-04-03T18:02:58.704Z,5.42
2023-04-03T18:06:05.353Z,5.24
2023-04-03T18:09:14.715Z,5.31
2023-04-03T18:12:18.538Z,5.31
2023-04-03T18:15:25.819Z,5.25
2023-04-03T18:18:29.666Z,5.23
2023-04-03T18:21:34.697Z,5.31
2023-04-03T18:24:38.538Z,5.35
2023-04-03T18:27:44.668Z,5.30
2023-04-03T18:30:50.574Z,5.51
2023-04-03T18:33:59.050Z,5.27
2023-04-03T18:37:03.298Z,5.27
2023-04-03T18:40:09.540Z,5.37
2023-04-03T18:43:14.915Z,5.43
2023-04-03T18:46:20.534Z,5.30
2023-04-03T18:49:24.491Z,5.43
2023-04-03T18:52:28.552Z,5.40
2023-04-03T18:55:32.297Z,5.59
2023-04-03T18:58:36.718Z,5.66
2023-04-03T19:01:42.325Z,5.49
2023-04-03T19:04:47.920Z,5.61
2023-04-03T19:07:52.513Z,5.58
2023-04-03T19:10:56.838Z,5.59
2023-04-03T19:17:09.464Z,5.54
2023-04-03T19:20:14.234Z,5.55
2023-04-03T19:23:19.034Z,5.42
2023-04-03T19:26:25.173Z,5.30
2023-04-03T19:29:29.838Z,5.39
2023-04-03T19:32:38.506Z,5.38
2023-04-03T19:35:43.014Z,5.39
2023-04-03T19:38:47.198Z,5.17
2023-04-03T19:41:59.012Z,5.17
2023-04-03T19:45:06.387Z,5.29
2023-04-03T19:48:11.915Z,5.51
2023-04-03T19:51:15.915Z,5.32
2023-04-03T19:54:19.736Z,5.32
2023-04-03T19:57:23.368Z,5.36
2023-04-03T20:00:28.615Z,5.30
2023-04-03T20:03:34.531Z,5.22
2023-04-03T20:06:39.165Z,5.34
2023-04-03T20:09:43.017Z,5.20
2023-04-03T20:12:47.829Z,5.21
2023-04-03T20:15:53.544Z,5.22
2023-04-03T20:18:59.520Z,5.15
2023-04-03T20:22:03.527Z,5.08
2023-04-03T20:25:09.932Z,4.85
2023-04-03T20:28:15.798Z,5.07
2023-04-03T20:31:19.721Z,4.73
2023-04-03T20:34:24.761Z,4.84
2023-04-03T20:37:29.137Z,4.60
2023-04-03T20:40:32.733Z,4.68
2023-04-03T20:43:38.452Z,4.66
2023-04-03T20:46:52.206Z,4.62
2023-04-03T20:49:58.508Z,4.59
2023-04-03T20:53:03.376Z,4.34
2023-04-03T20:56:09.152Z,4.54
2023-04-03T20:59:14.171Z,4.37
2023-04-03T21:02:18.696Z,4.34
2023-04-03T21:05:26.230Z,4.31
2023-04-03T21:09:06.863Z,3.99
2023-04-03T21:12:47.718Z,3.60
2023-04-03T21:15:52.458Z,3.58
2023-04-03T21:19:09.273Z,3.29
2023-04-03T21:22:14.783Z,3.20
2023-04-03T21:25:18.349Z,3.21
2023-04-03T21:28:23.067Z,3.26
2023-04-03T21:31:54.044Z,3.38
2023-04-03T21:34:59.328Z,3.14
2023-04-03T21:38:02.752Z,3.32
2023-04-03T21:41:07.516Z,3.08
2023-04-03T21:44:11.440Z,2.90
2023-04-03T21:47:16.201Z,3.01
2023-04-03T21:50:21.469Z,3.13
2023-04-03T21:53:28.565Z,3.22
2023-04-03T21:56:32.682Z,2.82
2023-04-03T21:59:37.132Z,2.73
2023-04-03T22:02:41.283Z,2.49
2023-04-03T22:05:46.722Z,2.73
2023-04-03T22:08:50.717Z,2.90
2023-04-03T22:11:55.237Z,2.76
2023-04-03T22:14:59.060Z,2.89
2023-04-03T22:18:03.102Z,3.18
2023-04-03T22:21:08.689Z,2.88
2023-04-03T22:24:12.880Z,2.92
2023-04-03T22:27:16.800Z,2.95
2023-04-03T22:30:20.821Z,2.49
2023-04-03T22:33:24.478Z,2.47
2023-04-03T22:36:30.021Z,2.26
2023-04-03T22:39:33.600Z,1.98
2023-04-03T22:42:37.717Z,2.01
2023-04-03T22:45:48.444Z,1.88
2023-04-03T22:48:52.385Z,2.01
2023-04-03T22:51:57.204Z,2.09
2023-04-03T22:55:12.832Z,2.06
2023-04-03T22:58:25.886Z,1.52
2023-04-03T23:01:30.277Z,1.56
2023-04-03T23:04:33.980Z,1.11
2023-04-03T23:07:39.311Z,0.29
2023-04-03T23:10:43.132Z,0.15
2023-04-03T23:13:47.337Z,0.59
2023-04-03T23:16:51.031Z,0.38
2023-04-03T23:19:55.189Z,0.36
2023-04-03T23:23:00.744Z,-0.14
2023-04-03T23:26:04.685Z,-0.21
2023-04-03T23:29:08.304Z,0.61
2023-04-03T23:32:12.183Z,0.68
2023-04-03T23:35:16.141Z,0.90
2023-04-03T23:38:21.526Z,0.42
2023-04-03T23:41:25.124Z,0.23
2023-04-03T23:44:29.376Z,0.27
2023-04-03T23:47:32.922Z,-0.73
2023-04-03T23:50:37.563Z,-0.32
2023-04-03T23:53:42.791Z,-0.08
2023-04-03T23:56:46.716Z,-0.18
2023-04-03T23:59:50.351Z,4.04
